sensor_id;sensor_type;location;lat;lon;timestamp;pressure;altitude;pressure_sealevel;temperature;humidity
73817;BME280;62146;53.232;-1.304;2023-03-21T00:00:38;99810.06;;;12.20;100.00
73817;BME280;62146;53.232;-1.304;2023-03-21T00:03:05;99805.53;;;12.16;100.00
73817;BME280;62146;53.232;-1.304;2023-03-21T00:05:31;99799.97;;;12.12;100.00
73817;BME280;62146;53.232;-1.304;2023-03-21T00:07:58;99801.28;;;12.10;100.00
73817;BME280;62146;53.232;-1.304;2023-03-21T00:10:27;99801.28;;;12.10;100.00
73817;BME280;62146;53.232;-1.304;2023-03-21T00:13:06;99807.66;;;12.04;100.00
73817;BME280;62146;53.232;-1.304;2023-03-21T00:15:34;99805.25;;;12.03;100.00
73817;BME280;62146;53.232;-1.304;2023-03-21T00:18:29;99805.78;;;12.00;100.00
73817;BME280;62146;53.232;-1.304;2023-03-21T00:21:02;99808.41;;;11.95;100.00
73817;BME280;62146;53.232;-1.304;2023-03-21T00:23:49;99807.34;;;11.91;100.00
73817;BME280;62146;53.232;-1.304;2023-03-21T00:26:15;99806.81;;;11.89;100.00
73817;BME280;62146;53.232;-1.304;2023-03-21T00:28:42;99798.31;;;11.87;100.00
73817;BME280;62146;53.232;-1.304;2023-03-21T00:31:09;99801.47;;;11.84;100.00
73817;BME280;62146;53.232;-1.304;2023-03-21T00:33:36;99790.03;;;11.78;100.00
73817;BME280;62146;53.232;-1.304;2023-03-21T00:36:05;99793.22;;;11.76;100.00
73817;BME280;62146;53.232;-1.304;2023-03-21T00:38:34;99791.63;;;11.75;100.00
73817;BME280;62146;53.232;-1.304;2023-03-21T00:41:19;99786.56;;;11.68;100.00
73817;BME280;62146;53.232;-1.304;2023-03-21T00:44:10;99788.13;;;11.64;100.00
73817;BME280;62146;53.232;-1.304;2023-03-21T00:46:39;99778.06;;;11.66;100.00
73817;BME280;62146;53.232;-1.304;2023-03-21T00:49:17;99774.34;;;11.67;100.00
73817;BME280;62146;53.232;-1.304;2023-03-21T00:51:46;99768.50;;;11.65;100.00
73817;BME280;62146;53.232;-1.304;2023-03-21T00:54:16;99769.53;;;11.64;100.00
73817;BME280;62146;53.232;-1.304;2023-03-21T00:56:43;99767.16;;;11.58;100.00
73817;BME280;62146;53.232;-1.304;2023-03-21T00:59:09;99763.44;;;11.54;100.00
73817;BME280;62146;53.232;-1.304;2023-03-21T01:01:36;99757.56;;;11.52;100.00
73817;BME280;62146;53.232;-1.304;2023-03-21T01:04:02;99764.44;;;11.48;100.00
73817;BME280;62146;53.232;-1.304;2023-03-21T01:06:34;99756.75;;;11.47;100.00
73817;BME280;62146;53.232;-1.304;2023-03-21T01:09:06;99746.38;;;11.45;100.00
73817;BME280;62146;53.232;-1.304;2023-03-21T01:11:33;99744.53;;;11.46;100.00
73817;BME280;62146;53.232;-1.304;2023-03-21T01:14:00;99731.78;;;11.43;100.00
73817;BME280;62146;53.232;-1.304;2023-03-21T01:16:46;99721.94;;;11.38;100.00
73817;BME280;62146;53.232;-1.304;2023-03-21T01:19:16;99725.63;;;11.37;100.00
73817;BME280;62146;53.232;-1.304;2023-03-21T01:21:51;99721.38;;;11.31;100.00
73817;BME280;62146;53.232;-1.304;2023-03-21T01:24:18;99716.56;;;11.33;100.00
73817;BME280;62146;53.232;-1.304;2023-03-21T01:26:45;99711.25;;;11.28;100.00
73817;BME280;62146;53.232;-1.304;2023-03-21T01:29:11;99709.13;;;11.25;100.00
73817;BME280;62146;53.232;-1.304;2023-03-21T01:31:38;99705.94;;;11.23;100.00
73817;BME280;62146;53.232;-1.304;2023-03-21T01:34:05;99693.19;;;11.25;100.00
73817;BME280;62146;53.232;-1.304;2023-03-21T01:36:31;99694.53;;;11.28;100.00
73817;BME280;62146;53.232;-1.304;2023-03-21T01:38:58;99693.75;;;11.27;100.00
73817;BME280;62146;53.232;-1.304;2023-03-21T01:41:36;99685.75;;;11.23;100.00
73817;BME280;62146;53.232;-1.304;2023-03-21T01:44:16;99696.91;;;11.20;100.00
73817;BME280;62146;53.232;-1.304;2023-03-21T01:46:50;99687.03;;;11.15;100.00
73817;BME280;62146;53.232;-1.304;2023-03-21T01:49:44;99683.06;;;11.13;100.00
73817;BME280;62146;53.232;-1.304;2023-03-21T01:52:15;99676.16;;;11.12;100.00
73817;BME280;62146;53.232;-1.304;2023-03-21T01:55:00;99667.66;;;11.10;100.00
73817;BME280;62146;53.232;-1.304;2023-03-21T01:57:32;99658.13;;;11.09;100.00
73817;BME280;62146;53.232;-1.304;2023-03-21T02:00:12;99649.09;;;11.10;100.00
73817;BME280;62146;53.232;-1.304;2023-03-21T02:02:42;99654.41;;;11.10;100.00
73817;BME280;62146;53.232;-1.304;2023-03-21T02:05:21;99639.00;;;11.07;100.00
73817;BME280;62146;53.232;-1.304;2023-03-21T02:07:50;99632.09;;;11.06;100.00
73817;BME280;62146;53.232;-1.304;2023-03-21T02:10:18;99628.38;;;11.07;100.00
73817;BME280;62146;53.232;-1.304;2023-03-21T02:12:44;99635.81;;;11.10;100.00
73817;BME280;62146;53.232;-1.304;2023-03-21T02:15:11;99633.97;;;11.05;100.00
73817;BME280;62146;53.232;-1.304;2023-03-21T02:17:44;99632.91;;;11.06;100.00
73817;BME280;62146;53.232;-1.304;2023-03-21T02:28:53;99637.69;;;11.04;100.00
73817;BME280;62146;53.232;-1.304;2023-03-21T02:40:02;99640.06;;;11.01;100.00
73817;BME280;62146;53.232;-1.304;2023-03-21T02:43:22;99634.47;;;10.97;100.00
73817;BME280;62146;53.232;-1.304;2023-03-21T02:45:44;99624.09;;;10.96;100.00
73817;BME280;62146;53.232;-1.304;2023-03-21T02:48:18;99627.31;;;10.98;100.00
73817;BME280;62146;53.232;-1.304;2023-03-21T02:50:59;99620.94;;;10.99;100.00
73817;BME280;62146;53.232;-1.304;2023-03-21T02:53:31;99627.03;;;10.99;100.00
73817;BME280;62146;53.232;-1.304;2023-03-21T02:55:59;99628.38;;;10.97;100.00
73817;BME280;62146;53.232;-1.304;2023-03-21T02:58:28;99619.84;;;10.95;100.00
73817;BME280;62146;53.232;-1.304;2023-03-21T03:00:56;99610.56;;;10.93;100.00
73817;BME280;62146;53.232;-1.304;2023-03-21T03:03:23;99618.78;;;10.91;100.00
73817;BME280;62146;53.232;-1.304;2023-03-21T03:06:01;99614.03;;;10.93;100.00
73817;BME280;62146;53.232;-1.304;2023-03-21T03:08:55;99603.66;;;10.92;100.00
73817;BME280;62146;53.232;-1.304;2023-03-21T03:11:38;99601.78;;;10.87;100.00
73817;BME280;62146;53.232;-1.304;2023-03-21T03:17:35;99597.56;;;10.91;100.00
73817;BME280;62146;53.232;-1.304;2023-03-21T03:20:24;99595.97;;;10.95;100.00
73817;BME280;62146;53.232;-1.304;2023-03-21T03:25:30;99589.59;;;10.96;100.00
73817;BME280;62146;53.232;-1.304;2023-03-21T03:28:10;99585.09;;;10.96;100.00
73817;BME280;62146;53.232;-1.304;2023-03-21T03:30:38;99588.81;;;10.96;100.00
73817;BME280;62146;53.232;-1.304;2023-03-21T03:33:15;99599.16;;;10.92;100.00
73817;BME280;62146;53.232;-1.304;2023-03-21T03:35:44;99591.47;;;10.91;100.00
73817;BME280;62146;53.232;-1.304;2023-03-21T03:38:24;99585.38;;;10.90;100.00
73817;BME280;62146;53.232;-1.304;2023-03-21T03:41:00;99581.13;;;10.94;100.00
73817;BME280;62146;53.232;-1.304;2023-03-21T03:43:34;99580.34;;;10.94;100.00
73817;BME280;62146;53.232;-1.304;2023-03-21T03:46:10;99553.00;;;10.93;100.00
73817;BME280;62146;53.232;-1.304;2023-03-21T03:48:44;99562.28;;;10.96;100.00
73817;BME280;62146;53.232;-1.304;2023-03-21T03:54:11;99578.72;;;10.93;100.00
73817;BME280;62146;53.232;-1.304;2023-03-21T03:56:39;99576.63;;;10.95;100.00
73817;BME280;62146;53.232;-1.304;2023-03-21T03:59:06;99564.94;;;10.96;100.00
73817;BME280;62146;53.232;-1.304;2023-03-21T04:01:33;99568.38;;;10.96;100.00
73817;BME280;62146;53.232;-1.304;2023-03-21T04:04:00;99554.09;;;10.97;100.00
73817;BME280;62146;53.232;-1.304;2023-03-21T04:06:38;99559.41;;;10.97;100.00
73817;BME280;62146;53.232;-1.304;2023-03-21T04:09:05;99569.19;;;10.96;100.00
73817;BME280;62146;53.232;-1.304;2023-03-21T04:11:45;99574.75;;;10.95;100.00
73817;BME280;62146;53.232;-1.304;2023-03-21T04:14:12;99566.81;;;10.95;100.00
73817;BME280;62146;53.232;-1.304;2023-03-21T04:16:39;99565.72;;;10.91;100.00
73817;BME280;62146;53.232;-1.304;2023-03-21T04:19:05;99558.84;;;10.95;100.00
73817;BME280;62146;53.232;-1.304;2023-03-21T04:21:32;99559.63;;;10.96;100.00
73817;BME280;62146;53.232;-1.304;2023-03-21T04:23:58;99550.88;;;10.95;100.00
73817;BME280;62146;53.232;-1.304;2023-03-21T04:26:25;99550.09;;;10.95;100.00
73817;BME280;62146;53.232;-1.304;2023-03-21T04:28:58;99547.97;;;10.96;100.00
73817;BME280;62146;53.232;-1.304;2023-03-21T04:31:29;99550.59;;;10.96;100.00
73817;BME280;62146;53.232;-1.304;2023-03-21T04:33:57;99551.69;;;10.96;100.00
73817;BME280;62146;53.232;-1.304;2023-03-21T04:36:25;99542.66;;;10.96;100.00
73817;BME280;62146;53.232;-1.304;2023-03-21T04:38:56;99530.47;;;10.96;100.00
73817;BME280;62146;53.232;-1.304;2023-03-21T04:41:27;99523.84;;;10.93;100.00
73817;BME280;62146;53.232;-1.304;2023-03-21T04:43:54;99530.72;;;10.94;100.00
73817;BME280;62146;53.232;-1.304;2023-03-21T04:46:22;99525.44;;;10.94;100.00
73817;BME280;62146;53.232;-1.304;2023-03-21T04:48:49;99522.78;;;10.94;100.00
73817;BME280;62146;53.232;-1.304;2023-03-21T04:51:15;99512.94;;;10.95;100.00
73817;BME280;62146;53.232;-1.304;2023-03-21T04:53:42;99507.09;;;10.93;100.00
73817;BME280;62146;53.232;-1.304;2023-03-21T04:56:11;99501.78;;;10.93;100.00
73817;BME280;62146;53.232;-1.304;2023-03-21T04:58:38;99489.34;;;10.93;100.00
73817;BME280;62146;53.232;-1.304;2023-03-21T05:01:06;99493.59;;;10.94;100.00
73817;BME280;62146;53.232;-1.304;2023-03-21T05:03:33;99488.28;;;10.94;100.00
73817;BME280;62146;53.232;-1.304;2023-03-21T05:06:08;99493.03;;;10.92;100.00
73817;BME280;62146;53.232;-1.304;2023-03-21T05:08:35;99482.44;;;10.92;100.00
73817;BME280;62146;53.232;-1.304;2023-03-21T05:11:02;99481.63;;;10.92;100.00
73817;BME280;62146;53.232;-1.304;2023-03-21T05:13:29;99484.28;;;10.92;100.00
73817;BME280;62146;53.232;-1.304;2023-03-21T05:15:55;99486.16;;;10.91;100.00
73817;BME280;62146;53.232;-1.304;2023-03-21T05:18:22;99481.63;;;10.92;100.00
73817;BME280;62146;53.232;-1.304;2023-03-21T05:20:51;99481.63;;;10.92;100.00
73817;BME280;62146;53.232;-1.304;2023-03-21T05:23:22;99474.75;;;10.91;100.00
73817;BME280;62146;53.232;-1.304;2023-03-21T05:25:49;99472.09;;;10.91;100.00
73817;BME280;62146;53.232;-1.304;2023-03-21T05:28:16;99461.75;;;10.89;100.00
73817;BME280;62146;53.232;-1.304;2023-03-21T05:30:45;99466.00;;;10.90;100.00
73817;BME280;62146;53.232;-1.304;2023-03-21T05:33:12;99462.56;;;10.90;100.00
73817;BME280;62146;53.232;-1.304;2023-03-21T05:35:39;99462.56;;;10.90;100.00
73817;BME280;62146;53.232;-1.304;2023-03-21T05:38:06;99459.13;;;10.89;100.00
73817;BME280;62146;53.232;-1.304;2023-03-21T05:40:32;99460.16;;;10.88;100.00
73817;BME280;62146;53.232;-1.304;2023-03-21T05:42:59;99451.41;;;10.88;100.00
73817;BME280;62146;53.232;-1.304;2023-03-21T05:45:26;99459.34;;;10.88;100.00
73817;BME280;62146;53.232;-1.304;2023-03-21T05:47:52;99449.53;;;10.88;100.00
73817;BME280;62146;53.232;-1.304;2023-03-21T05:50:19;99449.53;;;10.88;100.00
73817;BME280;62146;53.232;-1.304;2023-03-21T05:52:46;99442.66;;;10.87;100.00
73817;BME280;62146;53.232;-1.304;2023-03-21T05:55:12;99451.69;;;10.86;100.00
73817;BME280;62146;53.232;-1.304;2023-03-21T05:57:39;99448.75;;;10.88;100.00
73817;BME280;62146;53.232;-1.304;2023-03-21T06:00:06;99450.59;;;10.87;100.00
73817;BME280;62146;53.232;-1.304;2023-03-21T06:02:33;99445.31;;;10.87;100.00
73817;BME280;62146;53.232;-1.304;2023-03-21T06:05:00;99437.06;;;10.89;100.00
73817;BME280;62146;53.232;-1.304;2023-03-21T06:07:27;99446.88;;;10.88;100.00
73817;BME280;62146;53.232;-1.304;2023-03-21T06:09:53;99444.50;;;10.87;100.00
73817;BME280;62146;53.232;-1.304;2023-03-21T06:12:20;99440.00;;;10.87;100.00
73817;BME280;62146;53.232;-1.304;2023-03-21T06:14:46;99437.34;;;10.87;100.00
73817;BME280;62146;53.232;-1.304;2023-03-21T06:17:13;99430.97;;;10.88;100.00
73817;BME280;62146;53.232;-1.304;2023-03-21T06:19:40;99443.44;;;10.88;100.00
73817;BME280;62146;53.232;-1.304;2023-03-21T06:22:06;99432.03;;;10.87;100.00
73817;BME280;62146;53.232;-1.304;2023-03-21T06:24:33;99430.97;;;10.88;100.00
73817;BME280;62146;53.232;-1.304;2023-03-21T06:26:59;99442.66;;;10.87;100.00
73817;BME280;62146;53.232;-1.304;2023-03-21T06:29:29;99444.22;;;10.88;100.00
73817;BME280;62146;53.232;-1.304;2023-03-21T06:31:56;99444.22;;;10.88;100.00
73817;BME280;62146;53.232;-1.304;2023-03-21T06:34:23;99442.66;;;10.87;100.00
73817;BME280;62146;53.232;-1.304;2023-03-21T06:36:49;99439.72;;;10.89;100.00
73817;BME280;62146;53.232;-1.304;2023-03-21T06:39:17;99442.38;;;10.89;100.00
73817;BME280;62146;53.232;-1.304;2023-03-21T06:41:43;99441.59;;;10.88;100.00
73817;BME280;62146;53.232;-1.304;2023-03-21T06:44:10;99437.91;;;10.89;100.00
73817;BME280;62146;53.232;-1.304;2023-03-21T06:46:37;99443.19;;;10.89;100.00
73817;BME280;62146;53.232;-1.304;2023-03-21T06:49:03;99433.91;;;10.92;100.00
73817;BME280;62146;53.232;-1.304;2023-03-21T06:51:30;99430.44;;;10.91;100.00
73817;BME280;62146;53.232;-1.304;2023-03-21T06:53:56;99422.50;;;10.91;100.00
73817;BME280;62146;53.232;-1.304;2023-03-21T06:56:23;99416.41;;;10.91;100.00
73817;BME280;62146;53.232;-1.304;2023-03-21T06:58:49;99432.03;;;10.92;100.00
73817;BME280;62146;53.232;-1.304;2023-03-21T07:01:16;99435.47;;;10.93;100.00
73817;BME280;62146;53.232;-1.304;2023-03-21T07:03:43;99424.34;;;10.96;100.00
73817;BME280;62146;53.232;-1.304;2023-03-21T07:06:10;99422.47;;;10.96;100.00
73817;BME280;62146;53.232;-1.304;2023-03-21T07:08:39;99411.88;;;10.96;100.00
73817;BME280;62146;53.232;-1.304;2023-03-21T07:11:07;99423.28;;;10.96;100.00
73817;BME280;62146;53.232;-1.304;2023-03-21T07:13:34;99418.78;;;10.97;100.00
73817;BME280;62146;53.232;-1.304;2023-03-21T07:16:01;99419.31;;;10.99;100.00
73817;BME280;62146;53.232;-1.304;2023-03-21T07:18:28;99428.06;;;10.99;100.00
73817;BME280;62146;53.232;-1.304;2023-03-21T07:20:56;99417.44;;;10.99;100.00
73817;BME280;62146;53.232;-1.304;2023-03-21T07:23:24;99412.94;;;11.00;100.00
73817;BME280;62146;53.232;-1.304;2023-03-21T07:25:51;99414.53;;;11.01;100.00
73817;BME280;62146;53.232;-1.304;2023-03-21T07:28:19;99421.72;;;11.00;100.00
73817;BME280;62146;53.232;-1.304;2023-03-21T07:30:55;99418.50;;;10.98;100.00
73817;BME280;62146;53.232;-1.304;2023-03-21T07:33:23;99425.69;;;10.98;100.00
73817;BME280;62146;53.232;-1.304;2023-03-21T07:35:51;99407.13;;;10.98;100.00
73817;BME280;62146;53.232;-1.304;2023-03-21T07:38:19;99413.22;;;10.98;100.00
73817;BME280;62146;53.232;-1.304;2023-03-21T07:40:47;99420.91;;;11.00;100.00
73817;BME280;62146;53.232;-1.304;2023-03-21T07:43:14;99410.28;;;11.00;100.00
73817;BME280;62146;53.232;-1.304;2023-03-21T07:45:41;99408.44;;;11.00;100.00
73817;BME280;62146;53.232;-1.304;2023-03-21T07:48:09;99428.84;;;11.00;100.00
73817;BME280;62146;53.232;-1.304;2023-03-21T07:50:39;99421.72;;;11.00;100.00
73817;BME280;62146;53.232;-1.304;2023-03-21T07:53:06;99425.94;;;11.01;100.00
73817;BME280;62146;53.232;-1.304;2023-03-21T07:55:33;99424.09;;;11.02;100.00
73817;BME280;62146;53.232;-1.304;2023-03-21T07:58:01;99428.88;;;11.05;100.00
73817;BME280;62146;53.232;-1.304;2023-03-21T08:00:28;99425.16;;;11.06;100.00
73817;BME280;62146;53.232;-1.304;2023-03-21T08:02:56;99424.06;;;11.07;100.00
73817;BME280;62146;53.232;-1.304;2023-03-21T08:05:34;99423.84;;;11.08;100.00
73817;BME280;62146;53.232;-1.304;2023-03-21T08:08:03;99426.72;;;11.12;100.00
73817;BME280;62146;53.232;-1.304;2023-03-21T08:10:30;99412.94;;;11.15;100.00
73817;BME280;62146;53.232;-1.304;2023-03-21T08:12:57;99417.72;;;11.18;100.00
73817;BME280;62146;53.232;-1.304;2023-03-21T08:15:23;99419.84;;;11.21;100.00
73817;BME280;62146;53.232;-1.304;2023-03-21T08:17:50;99412.13;;;11.24;100.00
73817;BME280;62146;53.232;-1.304;2023-03-21T08:20:19;99410.53;;;11.28;100.00
73817;BME280;62146;53.232;-1.304;2023-03-21T08:22:48;99402.84;;;11.31;100.00
73817;BME280;62146;53.232;-1.304;2023-03-21T08:25:16;99398.84;;;11.34;100.00
73817;BME280;62146;53.232;-1.304;2023-03-21T08:27:44;99398.06;;;11.38;100.00
73817;BME280;62146;53.232;-1.304;2023-03-21T08:30:14;99393.00;;;11.42;100.00
73817;BME280;62146;53.232;-1.304;2023-03-21T08:32:42;99391.41;;;11.46;100.00
73817;BME280;62146;53.232;-1.304;2023-03-21T08:35:11;99387.44;;;11.48;100.00
73817;BME280;62146;53.232;-1.304;2023-03-21T08:37:39;99383.16;;;11.52;100.00
73817;BME280;62146;53.232;-1.304;2023-03-21T08:40:08;99368.28;;;11.56;100.00
73817;BME280;62146;53.232;-1.304;2023-03-21T08:42:37;99375.44;;;11.60;100.00
73817;BME280;62146;53.232;-1.304;2023-03-21T08:45:04;99370.38;;;11.64;100.00
73817;BME280;62146;53.232;-1.304;2023-03-21T08:47:31;99362.97;;;11.66;100.00
73817;BME280;62146;53.232;-1.304;2023-03-21T08:49:58;99358.94;;;11.68;100.00
73817;BME280;62146;53.232;-1.304;2023-03-21T08:52:25;99369.31;;;11.70;100.00
73817;BME280;62146;53.232;-1.304;2023-03-21T08:54:53;99365.84;;;11.74;100.00
73817;BME280;62146;53.232;-1.304;2023-03-21T08:57:20;99370.88;;;11.76;100.00
73817;BME280;62146;53.232;-1.304;2023-03-21T08:59:47;99374.06;;;11.77;100.00
73817;BME280;62146;53.232;-1.304;2023-03-21T09:02:15;99371.41;;;11.77;100.00
73817;BME280;62146;53.232;-1.304;2023-03-21T09:04:42;99369.00;;;11.81;100.00
73817;BME280;62146;53.232;-1.304;2023-03-21T09:07:10;99368.72;;;11.82;100.00
73817;BME280;62146;53.232;-1.304;2023-03-21T09:09:40;99363.13;;;11.84;100.00
73817;BME280;62146;53.232;-1.304;2023-03-21T09:12:07;99365.00;;;11.83;100.00
73817;BME280;62146;53.232;-1.304;2023-03-21T09:14:34;99367.41;;;11.85;100.00
73817;BME280;62146;53.232;-1.304;2023-03-21T09:17:01;99365.25;;;11.87;100.00
73817;BME280;62146;53.232;-1.304;2023-03-21T09:19:27;99365.25;;;11.87;100.00
73817;BME280;62146;53.232;-1.304;2023-03-21T09:21:55;99375.63;;;11.88;100.00
73817;BME280;62146;53.232;-1.304;2023-03-21T09:24:22;99367.66;;;11.88;100.00
73817;BME280;62146;53.232;-1.304;2023-03-21T09:26:49;99374.00;;;11.87;100.00
73817;BME280;62146;53.232;-1.304;2023-03-21T09:29:17;99362.34;;;11.88;100.00
73817;BME280;62146;53.232;-1.304;2023-03-21T09:31:44;99359.69;;;11.88;100.00
73817;BME280;62146;53.232;-1.304;2023-03-21T09:34:12;99351.41;;;11.90;100.00
73817;BME280;62146;53.232;-1.304;2023-03-21T09:36:42;99354.06;;;11.90;100.00
73817;BME280;62146;53.232;-1.304;2023-03-21T09:39:14;99359.91;;;11.92;100.00
73817;BME280;62146;53.232;-1.304;2023-03-21T09:42:03;99358.56;;;11.94;100.00
73817;BME280;62146;53.232;-1.304;2023-03-21T09:47:47;99349.53;;;12.00;100.00
73817;BME280;62146;53.232;-1.304;2023-03-21T09:50:29;99333.25;;;12.06;100.00
73817;BME280;62146;53.232;-1.304;2023-03-21T09:53:04;99334.81;;;12.12;100.00
73817;BME280;62146;53.232;-1.304;2023-03-21T09:55:34;99331.88;;;12.19;100.00
73817;BME280;62146;53.232;-1.304;2023-03-21T09:58:24;99329.69;;;12.26;100.00
73817;BME280;62146;53.232;-1.304;2023-03-21T10:01:02;99322.47;;;12.31;100.00
73817;BME280;62146;53.232;-1.304;2023-03-21T10:03:32;99327.22;;;12.39;100.00
73817;BME280;62146;53.232;-1.304;2023-03-21T10:06:04;99333.84;;;12.41;100.00
73817;BME280;62146;53.232;-1.304;2023-03-21T10:08:39;99329.56;;;12.45;100.00
73817;BME280;62146;53.232;-1.304;2023-03-21T10:11:22;99328.19;;;12.48;100.00
73817;BME280;62146;53.232;-1.304;2023-03-21T10:13:50;99329.53;;;12.50;100.00
73817;BME280;62146;53.232;-1.304;2023-03-21T10:16:26;99318.03;;;12.55;100.00
73817;BME280;62146;53.232;-1.304;2023-03-21T10:18:54;99318.78;;;12.60;100.00
73817;BME280;62146;53.232;-1.304;2023-03-21T10:21:26;99322.47;;;12.64;100.00
73817;BME280;62146;53.232;-1.304;2023-03-21T10:24:16;99321.88;;;12.72;100.00
73817;BME280;62146;53.232;-1.304;2023-03-21T10:26:44;99320.81;;;12.78;100.00
73817;BME280;62146;53.232;-1.304;2023-03-21T10:29:13;99305.81;;;12.86;100.00
73817;BME280;62146;53.232;-1.304;2023-03-21T10:31:41;99299.66;;;12.91;100.00
73817;BME280;62146;53.232;-1.304;2023-03-21T10:34:22;99308.09;;;12.98;100.00
73817;BME280;62146;53.232;-1.304;2023-03-21T10:36:52;99301.66;;;13.04;100.00
73817;BME280;62146;53.232;-1.304;2023-03-21T10:39:29;99287.50;;;13.08;100.00
73817;BME280;62146;53.232;-1.304;2023-03-21T10:41:57;99288.19;;;13.18;100.00
73817;BME280;62146;53.232;-1.304;2023-03-21T10:44:34;99287.56;;;13.26;100.00
73817;BME280;62146;53.232;-1.304;2023-03-21T10:47:06;99286.16;;;13.34;100.00
73817;BME280;62146;53.232;-1.304;2023-03-21T10:49:38;99275.16;;;13.40;100.00
73817;BME280;62146;53.232;-1.304;2023-03-21T10:52:27;99259.34;;;13.48;100.00
73817;BME280;62146;53.232;-1.304;2023-03-21T10:55:26;99254.75;;;13.54;100.00
73817;BME280;62146;53.232;-1.304;2023-03-21T10:57:58;99261.88;;;13.58;100.00
73817;BME280;62146;53.232;-1.304;2023-03-21T11:00:28;99262.38;;;13.60;100.00
73817;BME280;62146;53.232;-1.304;2023-03-21T11:02:56;99260.22;;;13.62;100.00
73817;BME280;62146;53.232;-1.304;2023-03-21T11:05:34;99258.06;;;13.64;100.00
73817;BME280;62146;53.232;-1.304;2023-03-21T11:08:09;99260.66;;;13.69;100.00
73817;BME280;62146;53.232;-1.304;2023-03-21T11:10:59;99259.00;;;13.73;100.00
73817;BME280;62146;53.232;-1.304;2023-03-21T11:13:36;99252.25;;;13.80;100.00
73817;BME280;62146;53.232;-1.304;2023-03-21T11:16:11;99257.50;;;13.85;100.00
73817;BME280;62146;53.232;-1.304;2023-03-21T11:18:49;99247.00;;;13.93;100.00
73817;BME280;62146;53.232;-1.304;2023-03-21T11:21:16;99258.31;;;14.04;100.00
73817;BME280;62146;53.232;-1.304;2023-03-21T11:23:45;99245.91;;;14.13;100.00
73817;BME280;62146;53.232;-1.304;2023-03-21T11:26:21;99255.34;;;14.23;100.00
73817;BME280;62146;53.232;-1.304;2023-03-21T11:28:52;99254.69;;;14.31;100.00
73817;BME280;62146;53.232;-1.304;2023-03-21T11:31:20;99257.50;;;14.40;100.00
73817;BME280;62146;53.232;-1.304;2023-03-21T11:33:54;99253.38;;;14.47;100.00
73817;BME280;62146;53.232;-1.304;2023-03-21T11:39:36;99272.78;;;14.66;100.00
73817;BME280;62146;53.232;-1.304;2023-03-21T11:41:39;99268.66;;;14.73;100.00
73817;BME280;62146;53.232;-1.304;2023-03-21T11:44:24;99288.28;;;14.82;100.00
73817;BME280;62146;53.232;-1.304;2023-03-21T11:46:50;99290.84;;;14.87;100.00
73817;BME280;62146;53.232;-1.304;2023-03-21T11:49:20;99276.13;;;14.89;100.00
73817;BME280;62146;53.232;-1.304;2023-03-21T11:52:02;99266.94;;;14.95;100.00
73817;BME280;62146;53.232;-1.304;2023-03-21T11:57:40;99270.44;;;15.09;100.00
73817;BME280;62146;53.232;-1.304;2023-03-21T12:00:16;99262.22;;;15.19;100.00
73817;BME280;62146;53.232;-1.304;2023-03-21T12:02:57;99253.25;;;15.28;100.00
73817;BME280;62146;53.232;-1.304;2023-03-21T12:05:34;99239.66;;;15.38;100.00
73817;BME280;62146;53.232;-1.304;2023-03-21T12:14:09;99223.88;;;15.76;100.00
73817;BME280;62146;53.232;-1.304;2023-03-21T12:16:52;99218.63;;;15.84;100.00
73817;BME280;62146;53.232;-1.304;2023-03-21T12:25:06;99207.00;;;16.24;100.00
73817;BME280;62146;53.232;-1.304;2023-03-21T12:27:57;99213.75;;;16.43;100.00
73817;BME280;62146;53.232;-1.304;2023-03-21T12:30:47;99213.41;;;16.66;100.00
73817;BME280;62146;53.232;-1.304;2023-03-21T12:39:34;99199.88;;;17.39;100.00
73817;BME280;62146;53.232;-1.304;2023-03-21T12:42:37;99196.13;;;17.57;100.00
73817;BME280;62146;53.232;-1.304;2023-03-21T12:45:12;99193.78;;;17.72;100.00
73817;BME280;62146;53.232;-1.304;2023-03-21T12:47:46;99195.84;;;17.83;100.00
73817;BME280;62146;53.232;-1.304;2023-03-21T12:50:18;99200.09;;;17.93;100.00
73817;BME280;62146;53.232;-1.304;2023-03-21T12:52:51;99194.28;;;17.99;100.00
73817;BME280;62146;53.232;-1.304;2023-03-21T12:55:29;99195.69;;;18.05;100.00
73817;BME280;62146;53.232;-1.304;2023-03-21T12:58:03;99197.13;;;18.11;100.00
73817;BME280;62146;53.232;-1.304;2023-03-21T13:00:38;99207.84;;;18.19;100.00
73817;BME280;62146;53.232;-1.304;2023-03-21T13:06:06;99227.13;;;18.29;100.00
73817;BME280;62146;53.232;-1.304;2023-03-21T13:08:36;99218.09;;;18.34;100.00
73817;BME280;62146;53.232;-1.304;2023-03-21T13:11:05;99218.41;;;18.41;100.00
73817;BME280;62146;53.232;-1.304;2023-03-21T13:13:44;99214.59;;;18.50;100.00
73817;BME280;62146;53.232;-1.304;2023-03-21T13:16:23;99212.53;;;18.64;100.00
73817;BME280;62146;53.232;-1.304;2023-03-21T13:26:47;99204.41;;;19.26;100.00
73817;BME280;62146;53.232;-1.304;2023-03-21T13:32:31;99212.81;;;19.53;100.00
73817;BME280;62146;53.232;-1.304;2023-03-21T13:35:02;99210.81;;;19.70;100.00
73817;BME280;62146;53.232;-1.304;2023-03-21T13:37:41;99211.97;;;19.89;100.00
73817;BME280;62146;53.232;-1.304;2023-03-21T13:40:46;99219.00;;;20.02;100.00
73817;BME280;62146;53.232;-1.304;2023-03-21T13:43:40;99221.75;;;20.13;100.00
73817;BME280;62146;53.232;-1.304;2023-03-21T13:46:09;99215.75;;;20.28;100.00
73817;BME280;62146;53.232;-1.304;2023-03-21T13:54:28;99207.75;;;20.72;100.00
73817;BME280;62146;53.232;-1.304;2023-03-21T13:56:57;99209.22;;;20.81;100.00
73817;BME280;62146;53.232;-1.304;2023-03-21T13:59:37;99198.22;;;20.86;100.00
73817;BME280;62146;53.232;-1.304;2023-03-21T14:04:40;99210.72;;;20.91;100.00
73817;BME280;62146;53.232;-1.304;2023-03-21T14:07:29;99223.97;;;20.84;100.00
73817;BME280;62146;53.232;-1.304;2023-03-21T14:10:04;99224.06;;;20.75;100.00
73817;BME280;62146;53.232;-1.304;2023-03-21T14:12:39;99233.56;;;20.61;100.00
73817;BME280;62146;53.232;-1.304;2023-03-21T14:15:16;99225.47;;;20.41;100.00
73817;BME280;62146;53.232;-1.304;2023-03-21T14:17:59;99227.25;;;20.17;100.00